createdAt,value
2018-06-08T00:00:35.943Z,15.70
2018-06-08T00:03:04.145Z,16.33
2018-06-08T00:05:33.336Z,15.50
2018-06-08T00:08:03.120Z,13.80
2018-06-08T00:10:33.155Z,14.40
2018-06-08T00:13:01.156Z,14.00
2018-06-08T00:15:29.332Z,13.20
2018-06-08T00:17:59.185Z,12.67
2018-06-08T00:20:27.344Z,13.93
2018-06-08T00:22:55.432Z,11.10
2018-06-08T00:25:24.180Z,12.10
2018-06-08T00:27:52.301Z,12.57
2018-06-08T00:30:20.398Z,11.90
2018-06-08T00:32:48.572Z,12.77
2018-06-08T00:35:17.717Z,12.17
2018-06-08T00:37:46.077Z,12.80
2018-06-08T00:40:14.168Z,12.63
2018-06-08T00:42:42.320Z,13.00
2018-06-08T00:45:11.125Z,12.03
2018-06-08T00:47:40.551Z,12.50
2018-06-08T00:50:11.710Z,12.80
2018-06-08T00:52:39.779Z,11.93
2018-06-08T00:55:07.784Z,13.60
2018-06-08T00:57:35.772Z,13.40
2018-06-08T01:00:04.102Z,13.03
2018-06-08T01:02:32.296Z,14.00
2018-06-08T01:05:01.060Z,13.23
2018-06-08T01:07:29.257Z,12.90
2018-06-08T01:09:57.419Z,13.73
2018-06-08T01:12:27.223Z,12.27
2018-06-08T01:14:55.308Z,12.00
2018-06-08T01:17:23.316Z,12.73
2018-06-08T01:19:52.529Z,13.43
2018-06-08T01:22:20.704Z,12.30
2018-06-08T01:24:48.770Z,12.10
2018-06-08T01:27:16.828Z,12.40
2018-06-08T01:29:44.751Z,14.43
2018-06-08T01:32:12.845Z,13.43
2018-06-08T01:34:41.617Z,13.80
2018-06-08T01:37:09.632Z,15.63
2018-06-08T01:39:37.772Z,14.23
2018-06-08T01:42:08.840Z,14.80
2018-06-08T01:44:36.960Z,13.97
2018-06-08T01:47:08.474Z,13.40
2018-06-08T01:49:36.484Z,13.57
2018-06-08T01:52:04.595Z,12.97
2018-06-08T01:54:32.808Z,14.10
2018-06-08T01:57:00.968Z,15.00
2018-06-08T01:59:29.113Z,14.30
2018-06-08T02:01:59.196Z,14.23
2018-06-08T02:04:27.356Z,14.20
2018-06-08T02:06:56.252Z,13.60
2018-06-08T02:09:24.288Z,14.17
2018-06-08T02:11:52.348Z,15.27
2018-06-08T02:14:20.496Z,17.50
2018-06-08T02:16:49.212Z,15.60
2018-06-08T02:19:17.500Z,15.27
2018-06-08T02:21:45.716Z,15.07
2018-06-08T02:24:13.921Z,15.20
2018-06-08T02:26:42.952Z,13.80
2018-06-08T02:29:10.976Z,13.70
2018-06-08T02:31:38.972Z,11.73
2018-06-08T02:34:06.992Z,12.40
2018-06-08T02:36:35.040Z,11.27
2018-06-08T02:39:05.065Z,13.10
2018-06-08T02:41:33.151Z,12.40
2018-06-08T02:44:01.336Z,11.83
2018-06-08T02:46:29.484Z,12.77
2018-06-08T02:48:58.580Z,11.50
2018-06-08T02:51:26.656Z,12.33
2018-06-08T02:53:56.679Z,11.67
2018-06-08T02:56:24.769Z,11.40
2018-06-08T02:58:52.880Z,11.60
2018-06-08T03:01:20.957Z,12.50
2018-06-08T03:03:49.040Z,12.23
2018-06-08T03:06:17.728Z,12.33
2018-06-08T03:08:45.808Z,11.60
2018-06-08T03:11:13.881Z,10.13
2018-06-08T03:13:42.022Z,9.53
2018-06-08T03:16:10.765Z,10.20
2018-06-08T03:18:38.902Z,10.27
2018-06-08T03:21:06.964Z,9.27
2018-06-08T03:23:35.081Z,10.00
2018-06-08T03:26:03.741Z,9.80
2018-06-08T03:28:32.843Z,10.37
2018-06-08T03:31:00.949Z,8.97
2018-06-08T03:33:30.367Z,8.90
2018-06-08T03:35:58.516Z,9.73
2018-06-08T03:38:26.603Z,9.53
2018-06-08T03:40:54.788Z,9.50
2018-06-08T03:43:22.908Z,10.67
2018-06-08T03:45:51.017Z,10.03
2018-06-08T03:48:20.168Z,11.47
2018-06-08T03:50:51.140Z,11.40
2018-06-08T03:53:20.144Z,11.40
2018-06-08T03:55:49.328Z,10.83
2018-06-08T03:58:17.428Z,10.33
2018-06-08T04:00:50.020Z,9.87
2018-06-08T04:03:19.031Z,8.70
2018-06-08T04:05:47.109Z,8.60
2018-06-08T04:08:15.004Z,9.50
2018-06-08T04:10:44.109Z,8.83
2018-06-08T04:13:13.819Z,9.27
2018-06-08T04:15:43.752Z,8.20
2018-06-08T04:18:11.662Z,8.23
2018-06-08T04:20:39.736Z,8.00
2018-06-08T04:23:07.820Z,8.37
2018-06-08T04:25:35.900Z,8.07
2018-06-08T04:28:03.957Z,8.00
2018-06-08T04:30:46.827Z,7.13
2018-06-08T04:33:22.984Z,7.40
2018-06-08T04:35:54.639Z,6.97
2018-06-08T04:38:22.615Z,7.97
2018-06-08T04:40:51.644Z,7.73
2018-06-08T04:43:19.700Z,7.80
2018-06-08T04:46:04.594Z,7.97
2018-06-08T04:48:34.315Z,7.67
2018-06-08T04:51:33.262Z,8.00
2018-06-08T04:54:02.022Z,7.47
2018-06-08T04:56:30.620Z,8.20
2018-06-08T04:59:00.033Z,8.33
2018-06-08T05:01:27.904Z,8.30
2018-06-08T05:03:59.143Z,8.53
2018-06-08T05:06:28.692Z,9.60
2018-06-08T05:08:56.656Z,9.10
2018-06-08T05:11:24.517Z,8.73
2018-06-08T05:13:52.516Z,10.50
2018-06-08T05:16:20.488Z,9.57
2018-06-08T05:18:48.537Z,9.53
2018-06-08T05:21:16.484Z,9.30
2018-06-08T05:23:44.576Z,9.80
2018-06-08T05:26:12.533Z,10.70
2018-06-08T05:28:43.224Z,10.10
2018-06-08T05:31:12.189Z,12.00
2018-06-08T05:33:40.160Z,13.37
2018-06-08T05:36:08.134Z,13.80
2018-06-08T05:38:35.848Z,13.00
2018-06-08T05:41:03.932Z,12.37
2018-06-08T05:43:31.936Z,14.63
2018-06-08T05:45:59.945Z,13.63
2018-06-08T05:48:29.825Z,15.87
2018-06-08T05:50:58.787Z,17.10
2018-06-08T05:53:26.768Z,16.67
2018-06-08T05:55:54.639Z,16.17
2018-06-08T05:58:22.572Z,20.03
2018-06-08T06:00:50.640Z,17.97
2018-06-08T06:03:19.212Z,21.33
2018-06-08T06:05:47.196Z,21.43
2018-06-08T06:08:15.172Z,17.63
2018-06-08T06:10:43.080Z,16.83
2018-06-08T06:13:11.131Z,19.07
2018-06-08T06:15:39.056Z,19.10
2018-06-08T06:18:07.109Z,22.80
2018-06-08T06:20:35.699Z,23.63
2018-06-08T06:23:03.732Z,23.30
2018-06-08T06:25:31.672Z,23.40
2018-06-08T06:27:59.648Z,24.80
2018-06-08T06:30:27.624Z,24.53
2018-06-08T06:32:55.501Z,22.30
2018-06-08T06:35:23.480Z,23.60
2018-06-08T06:37:51.476Z,22.13
2018-06-08T06:40:19.756Z,23.80
2018-06-08T06:42:47.725Z,24.30
2018-06-08T06:45:15.741Z,20.90
2018-06-08T06:47:44.709Z,25.30
2018-06-08T06:50:13.170Z,24.43
2018-06-08T06:52:41.232Z,22.90
2018-06-08T06:55:09.513Z,22.53
2018-06-08T06:57:37.480Z,21.10
2018-06-08T07:00:07.324Z,24.10
2018-06-08T07:02:35.288Z,24.30
2018-06-08T07:05:03.227Z,22.70
2018-06-08T07:07:31.207Z,26.90
2018-06-08T07:09:59.451Z,24.33
2018-06-08T07:12:27.496Z,22.27
2018-06-08T07:14:56.320Z,24.33
2018-06-08T07:17:24.232Z,24.10
2018-06-08T07:19:52.215Z,20.80
2018-06-08T07:22:21.275Z,25.63
2018-06-08T07:24:49.315Z,23.47
2018-06-08T07:27:17.352Z,26.93
2018-06-08T07:29:45.317Z,26.73
2018-06-08T07:32:13.293Z,27.93
2018-06-08T07:34:41.201Z,24.10
2018-06-08T07:37:09.169Z,22.17
2018-06-08T07:39:38.199Z,23.07
2018-06-08T07:42:06.264Z,26.13
2018-06-08T07:44:34.243Z,25.50
2018-06-08T07:47:02.196Z,26.90
2018-06-08T07:49:30.814Z,25.40
2018-06-08T07:51:58.780Z,27.60
2018-06-08T07:54:26.784Z,23.70
2018-06-08T07:56:54.759Z,25.43
2018-06-08T07:59:22.736Z,27.87
2018-06-08T08:01:50.712Z,26.50
2018-06-08T08:04:18.703Z,28.33
2018-06-08T08:06:46.616Z,27.53
2018-06-08T08:09:14.657Z,26.37
2018-06-08T08:11:43.664Z,25.50
2018-06-08T08:14:12.319Z,24.87
2018-06-08T08:16:40.317Z,25.57
2018-06-08T08:19:08.259Z,21.90
2018-06-08T08:21:36.224Z,24.90
2018-06-08T08:24:04.552Z,23.90
2018-06-08T08:26:32.656Z,24.27
2018-06-08T08:29:00.616Z,26.33
2018-06-08T08:31:28.585Z,22.33
2018-06-08T08:33:58.267Z,21.73
2018-06-08T08:36:26.576Z,22.83
2018-06-08T08:38:54.460Z,24.13
2018-06-08T08:41:22.348Z,22.40
2018-06-08T08:43:50.212Z,26.10
2018-06-08T08:46:18.092Z,22.67
2018-06-08T08:48:46.054Z,22.20
2018-06-08T08:51:13.936Z,21.07
2018-06-08T08:53:41.922Z,21.27
2018-06-08T08:56:09.896Z,21.60
2018-06-08T08:58:37.976Z,22.03
2018-06-08T09:01:05.888Z,23.07
2018-06-08T09:03:34.667Z,23.60
2018-06-08T09:06:03.736Z,24.60
2018-06-08T09:08:32.481Z,22.57
2018-06-08T09:11:01.376Z,22.23
2018-06-08T09:13:29.347Z,21.83
2018-06-08T09:15:57.333Z,23.20
2018-06-08T09:18:26.327Z,19.00
2018-06-08T09:20:54.323Z,17.60
2018-06-08T09:23:22.228Z,18.33
2018-06-08T09:25:50.196Z,21.00
2018-06-08T09:28:18.204Z,22.93
2018-06-08T09:30:46.268Z,23.63
2018-06-08T09:33:14.182Z,21.50
2018-06-08T09:35:42.105Z,21.30
2018-06-08T09:38:10.089Z,17.77
2018-06-08T09:40:38.803Z,21.97
2018-06-08T09:43:06.797Z,23.03
2018-06-08T09:45:34.756Z,21.20
2018-06-08T09:48:02.734Z,20.33
2018-06-08T09:50:30.728Z,22.00
2018-06-08T09:52:58.648Z,22.20
2018-06-08T09:55:26.608Z,20.53
2018-06-08T09:57:54.712Z,17.30
2018-06-08T10:00:28.425Z,21.30
2018-06-08T10:02:56.459Z,22.87
2018-06-08T10:05:24.445Z,24.50
2018-06-08T10:07:52.428Z,22.23
2018-06-08T10:10:20.411Z,23.57
2018-06-08T10:12:48.384Z,23.50
2018-06-08T10:15:16.363Z,23.70
2018-06-08T10:17:44.319Z,22.73
2018-06-08T10:20:12.332Z,24.00
2018-06-08T10:22:40.325Z,24.60
2018-06-08T10:25:08.300Z,25.33
2018-06-08T10:27:36.236Z,24.10
2018-06-08T10:30:04.423Z,23.00
2018-06-08T10:32:32.443Z,23.83
2018-06-08T10:35:00.432Z,19.27
2018-06-08T10:37:28.452Z,18.50
2018-06-08T10:39:56.426Z,16.90
2018-06-08T10:42:24.493Z,15.93
2018-06-08T10:44:52.460Z,18.73
2018-06-08T10:47:21.410Z,20.93
2018-06-08T10:49:49.456Z,20.80
2018-06-08T10:52:17.423Z,21.90
2018-06-08T10:54:45.412Z,21.57
2018-06-08T10:57:14.013Z,19.93
2018-06-08T10:59:42.545Z,22.07
2018-06-08T11:02:11.618Z,18.53
2018-06-08T11:04:39.650Z,19.23
2018-06-08T11:07:08.391Z,22.77
2018-06-08T11:09:36.333Z,19.80
2018-06-08T11:12:04.092Z,17.90
2018-06-08T11:14:32.232Z,17.67
2018-06-08T11:17:00.216Z,17.40
2018-06-08T11:19:28.185Z,16.63
2018-06-08T11:21:56.176Z,17.97
2018-06-08T11:24:24.876Z,21.83
2018-06-08T11:26:52.863Z,18.43
2018-06-08T11:29:20.764Z,17.67
2018-06-08T11:31:48.844Z,16.27
2018-06-08T11:34:18.752Z,17.87
2018-06-08T11:36:46.764Z,18.10
2018-06-08T11:39:14.860Z,18.87
2018-06-08T11:41:42.793Z,17.80
2018-06-08T11:44:11.820Z,17.07
2018-06-08T11:46:40.313Z,15.37
2018-06-08T11:49:08.303Z,14.63
2018-06-08T11:51:36.357Z,16.13
2018-06-08T11:54:04.657Z,17.63
2018-06-08T11:56:32.632Z,14.87
2018-06-08T11:59:00.628Z,13.23
2018-06-08T12:01:28.404Z,13.40
2018-06-08T12:03:56.323Z,12.90
2018-06-08T12:06:24.555Z,14.27
2018-06-08T12:08:52.630Z,11.90
2018-06-08T12:11:20.708Z,13.00
2018-06-08T12:13:48.812Z,13.37
2018-06-08T12:16:16.867Z,13.57
2018-06-08T12:18:45.488Z,15.00
2018-06-08T12:21:13.392Z,14.37
2018-06-08T12:23:42.277Z,14.37
2018-06-08T12:26:11.883Z,13.53
2018-06-08T12:28:40.010Z,15.10
2018-06-08T12:31:07.980Z,14.57
2018-06-08T12:33:36.080Z,15.00
2018-06-08T12:36:04.788Z,15.40
2018-06-08T12:38:34.000Z,14.40
2018-06-08T12:41:02.073Z,13.20
2018-06-08T12:43:30.280Z,12.70
2018-06-08T12:45:58.364Z,12.17
2018-06-08T12:48:26.500Z,11.33
2018-06-08T12:50:54.496Z,10.57
2018-06-08T12:53:22.572Z,11.03
2018-06-08T12:55:52.488Z,12.00
2018-06-08T12:58:21.504Z,12.00
2018-06-08T13:00:49.481Z,12.67
2018-06-08T13:03:17.461Z,10.77
2018-06-08T13:05:45.512Z,11.40
2018-06-08T13:08:13.527Z,11.33
2018-06-08T13:10:41.468Z,10.83
2018-06-08T13:13:09.505Z,11.10
2018-06-08T13:15:37.746Z,11.03
2018-06-08T13:18:05.765Z,10.10
2018-06-08T13:20:33.740Z,10.63
2018-06-08T13:23:01.728Z,10.90
2018-06-08T13:25:29.827Z,10.60
2018-06-08T13:27:57.813Z,9.60
2018-06-08T13:30:25.700Z,10.40
2018-06-08T13:32:53.750Z,10.80
2018-06-08T13:35:21.736Z,11.70
2018-06-08T13:37:49.743Z,9.60
2018-06-08T13:40:17.745Z,9.97
2018-06-08T13:42:45.711Z,11.40
2018-06-08T13:45:13.690Z,9.20
2018-06-08T13:47:41.764Z,9.57
2018-06-08T13:50:09.782Z,8.70
2018-06-08T13:52:37.824Z,8.97
2018-06-08T13:55:05.796Z,10.07
2018-06-08T13:57:33.769Z,9.27
2018-06-08T14:00:01.653Z,8.63
2018-06-08T14:02:29.632Z,8.40
2018-06-08T14:04:57.540Z,8.23
2018-06-08T14:07:25.491Z,8.60
2018-06-08T14:09:53.504Z,8.40
2018-06-08T14:12:21.752Z,9.07
2018-06-08T14:14:49.664Z,9.57
2018-06-08T14:17:17.656Z,9.53
2018-06-08T14:19:45.612Z,8.53
2018-06-08T14:22:13.587Z,9.30
2018-06-08T14:24:41.561Z,9.30
2018-06-08T14:27:09.564Z,8.53
2018-06-08T14:29:37.575Z,9.90
2018-06-08T14:32:05.648Z,8.93
2018-06-08T14:34:33.798Z,10.63
2018-06-08T14:37:01.706Z,11.40
2018-06-08T14:39:29.670Z,11.90
2018-06-08T14:41:57.662Z,9.97
2018-06-08T14:44:25.639Z,10.87
2018-06-08T14:46:53.537Z,10.80
2018-06-08T14:49:21.496Z,8.90
2018-06-08T14:51:49.426Z,9.13
2018-06-08T14:54:18.424Z,9.30
2018-06-08T14:56:46.455Z,9.60
2018-06-08T14:59:14.368Z,9.23
2018-06-08T15:01:42.419Z,9.63
2018-06-08T15:04:10.392Z,9.10
2018-06-08T15:06:38.396Z,9.13
2018-06-08T15:09:06.897Z,8.60
2018-06-08T15:11:34.863Z,8.30
2018-06-08T15:14:02.908Z,7.80
2018-06-08T15:16:30.940Z,8.43
2018-06-08T15:18:58.904Z,9.63
2018-06-08T15:21:26.851Z,8.67
2018-06-08T15:23:54.965Z,7.77
2018-06-08T15:26:22.993Z,10.20
2018-06-08T15:28:51.045Z,9.20
2018-06-08T15:31:19.032Z,8.90
2018-06-08T15:33:46.999Z,9.63
2018-06-08T15:36:20.692Z,12.00
2018-06-08T15:38:48.723Z,14.00
2018-06-08T15:41:16.673Z,13.17
2018-06-08T15:43:44.656Z,14.13
2018-06-08T15:46:12.716Z,13.93
2018-06-08T15:48:40.742Z,14.93
2018-06-08T15:51:08.732Z,14.67
2018-06-08T15:53:37.734Z,15.57
2018-06-08T15:56:05.527Z,16.17
2018-06-08T15:58:33.488Z,16.50
2018-06-08T16:01:02.125Z,15.67
2018-06-08T16:03:31.474Z,16.33
2018-06-08T16:05:59.480Z,18.00
2018-06-08T16:08:27.456Z,17.87
2018-06-08T16:10:55.492Z,16.97
2018-06-08T16:13:23.710Z,17.07
2018-06-08T16:15:51.888Z,16.80
2018-06-08T16:18:19.939Z,17.40
2018-06-08T16:20:48.088Z,15.80
2018-06-08T16:23:16.254Z,15.40
2018-06-08T16:25:44.272Z,14.67
2018-06-08T16:28:12.781Z,15.50
2018-06-08T16:30:40.823Z,15.27
2018-06-08T16:33:08.807Z,15.57
2018-06-08T16:35:36.789Z,16.30
2018-06-08T16:38:04.796Z,15.57
2018-06-08T16:40:32.772Z,16.43
2018-06-08T16:43:01.805Z,14.97
2018-06-08T16:45:35.580Z,15.57
2018-06-08T16:48:03.585Z,14.97
2018-06-08T16:50:31.456Z,16.33
2018-06-08T16:52:59.435Z,15.63
2018-06-08T16:55:28.115Z,16.00
2018-06-08T16:57:56.168Z,15.20
2018-06-08T17:00:24.118Z,15.67
2018-06-08T17:02:52.050Z,15.77
2018-06-08T17:05:20.056Z,14.87
2018-06-08T17:07:48.036Z,17.47
2018-06-08T17:10:17.048Z,17.50
2018-06-08T17:12:45.044Z,18.07
2018-06-08T17:15:13.105Z,18.97
2018-06-08T17:17:41.078Z,18.47
2018-06-08T17:20:09.069Z,19.00
2018-06-08T17:22:37.021Z,21.97
2018-06-08T17:25:05.038Z,17.80
2018-06-08T17:27:33.000Z,18.57
2018-06-08T17:30:00.992Z,18.03
2018-06-08T17:32:30.480Z,18.37
2018-06-08T17:34:59.316Z,17.93
2018-06-08T17:37:27.309Z,17.60
2018-06-08T17:39:55.267Z,17.33
2018-06-08T17:42:23.152Z,14.90
2018-06-08T17:44:51.056Z,16.43
2018-06-08T17:47:20.956Z,15.87
2018-06-08T17:49:52.136Z,14.33
2018-06-08T17:52:20.108Z,15.57
2018-06-08T17:54:48.077Z,15.10
2018-06-08T17:57:16.072Z,15.10
2018-06-08T17:59:44.032Z,16.10
2018-06-08T18:02:13.052Z,15.33
2018-06-08T18:04:42.288Z,13.80
2018-06-08T18:07:11.197Z,14.80
2018-06-08T18:09:39.274Z,13.93
2018-06-08T18:12:07.212Z,14.87
2018-06-08T18:14:35.204Z,13.60
2018-06-08T18:17:03.112Z,14.37
2018-06-08T18:19:31.156Z,15.07
2018-06-08T18:21:59.628Z,15.30
2018-06-08T18:24:27.659Z,14.03
2018-06-08T18:26:55.633Z,14.97
2018-06-08T18:29:25.244Z,15.23
2018-06-08T18:31:53.032Z,15.40
2018-06-08T18:34:20.988Z,16.57
2018-06-08T18:36:49.656Z,16.10
2018-06-08T18:39:19.624Z,16.63
2018-06-08T18:41:47.604Z,16.47
2018-06-08T18:44:16.216Z,17.10
2018-06-08T18:46:48.213Z,17.73
2018-06-08T18:49:16.264Z,17.60
2018-06-08T18:51:44.265Z,17.50
2018-06-08T18:54:12.244Z,18.30
2018-06-08T18:56:40.216Z,17.33
2018-06-08T18:59:08.192Z,19.03
2018-06-08T19:01:36.673Z,19.20
2018-06-08T19:04:12.343Z,18.10
2018-06-08T19:06:41.507Z,18.70
2018-06-08T19:09:09.548Z,19.83
2018-06-08T19:11:37.446Z,18.77
2018-06-08T19:14:05.500Z,19.00
2018-06-08T19:16:35.228Z,19.10
2018-06-08T19:19:07.767Z,18.60
2018-06-08T19:21:36.671Z,18.63
2018-06-08T19:24:04.612Z,18.97
2018-06-08T19:26:32.593Z,18.50
2018-06-08T19:29:00.560Z,18.33
2018-06-08T19:31:29.264Z,21.00
2018-06-08T19:33:57.236Z,17.33
2018-06-08T19:36:25.255Z,18.00
2018-06-08T19:38:58.673Z,16.77
2018-06-08T19:41:27.237Z,16.50
2018-06-08T19:43:55.291Z,17.00
2018-06-08T19:46:25.288Z,15.90
2018-06-08T19:48:53.372Z,15.87
2018-06-08T19:51:21.420Z,15.53
2018-06-08T19:53:50.451Z,16.77
2018-06-08T19:56:18.582Z,15.23
2018-06-08T19:58:46.672Z,15.33
2018-06-08T20:01:17.937Z,16.10
2018-06-08T20:03:48.748Z,16.27
2018-06-08T20:06:42.928Z,16.00
2018-06-08T20:09:21.660Z,15.97
2018-06-08T20:11:50.244Z,16.97
2018-06-08T20:14:18.287Z,17.07
2018-06-08T20:16:54.078Z,16.27
2018-06-08T20:19:23.340Z,17.03
2018-06-08T20:21:52.417Z,16.30
2018-06-08T20:24:23.792Z,18.10
2018-06-08T20:26:58.619Z,17.57
2018-06-08T20:29:30.011Z,15.73
2018-06-08T20:32:01.887Z,16.10
2018-06-08T20:34:29.957Z,20.10
2018-06-08T20:37:02.645Z,18.57
2018-06-08T20:39:34.145Z,31.77
2018-06-08T20:42:03.845Z,20.27
2018-06-08T20:44:32.801Z,23.47
2018-06-08T20:47:02.895Z,17.20
2018-06-08T20:49:32.871Z,14.50
2018-06-08T20:52:00.800Z,13.60
2018-06-08T20:54:29.907Z,14.47
2018-06-08T20:57:08.987Z,18.23
2018-06-08T20:59:38.839Z,15.80
2018-06-08T21:02:08.932Z,14.47
2018-06-08T21:04:37.033Z,13.73
2018-06-08T21:07:09.835Z,15.17
2018-06-08T21:09:37.814Z,15.67
2018-06-08T21:12:05.808Z,15.17
2018-06-08T21:14:35.672Z,12.67
2018-06-08T21:17:03.684Z,12.73
2018-06-08T21:19:34.984Z,13.10
2018-06-08T21:22:03.909Z,11.70
2018-06-08T21:24:32.004Z,12.00
2018-06-08T21:27:00.007Z,11.67
2018-06-08T21:29:31.384Z,12.33
2018-06-08T21:31:59.412Z,13.27
2018-06-08T21:34:30.347Z,12.67
2018-06-08T21:36:58.408Z,12.90
2018-06-08T21:39:26.372Z,12.37
2018-06-08T21:41:55.420Z,11.77
2018-06-08T21:44:23.547Z,11.60
2018-06-08T21:46:51.636Z,13.23
2018-06-08T21:49:21.264Z,12.63
2018-06-08T21:51:52.304Z,15.20
2018-06-08T21:54:21.876Z,13.33
2018-06-08T21:56:50.908Z,13.37
2018-06-08T21:59:19.811Z,14.80
2018-06-08T22:01:59.164Z,12.80
2018-06-08T22:04:32.120Z,13.27
2018-06-08T22:07:00.108Z,14.20
2018-06-08T22:09:34.028Z,14.57
2018-06-08T22:12:02.907Z,15.10
2018-06-08T22:14:31.993Z,14.60
2018-06-08T22:17:00.333Z,15.00
2018-06-08T22:19:28.320Z,15.13
2018-06-08T22:21:56.468Z,15.03
2018-06-08T22:24:24.503Z,13.90
2018-06-08T22:26:52.566Z,15.60
2018-06-08T22:29:21.585Z,15.77
2018-06-08T22:31:49.653Z,15.57
2018-06-08T22:34:18.644Z,20.47
2018-06-08T22:36:47.360Z,18.00
2018-06-08T22:39:15.436Z,16.60
2018-06-08T22:41:45.388Z,16.70
2018-06-08T22:44:15.388Z,20.70
2018-06-08T22:46:47.365Z,17.73
2018-06-08T22:49:17.396Z,15.20
2018-06-08T22:51:45.372Z,14.40
2018-06-08T22:54:13.996Z,14.23
2018-06-08T22:56:44.016Z,15.80
2018-06-08T22:59:16.986Z,15.33
2018-06-08T23:01:45.908Z,15.30
2018-06-08T23:04:15.836Z,15.20
2018-06-08T23:06:43.832Z,16.43
2018-06-08T23:09:12.952Z,15.70
2018-06-08T23:11:40.984Z,16.03
2018-06-08T23:14:23.139Z,14.73
2018-06-08T23:16:51.415Z,15.73
2018-06-08T23:19:19.380Z,16.37
2018-06-08T23:21:48.390Z,15.87
2018-06-08T23:24:16.288Z,14.97
2018-06-08T23:26:44.180Z,16.17
2018-06-08T23:29:12.256Z,14.73
2018-06-08T23:31:40.339Z,16.23
2018-06-08T23:34:08.400Z,16.27
2018-06-08T23:36:37.348Z,16.00
2018-06-08T23:39:07.288Z,15.77
2018-06-08T23:41:36.976Z,18.00
2018-06-08T23:44:05.172Z,16.10
2018-06-08T23:46:33.220Z,17.27
2018-06-08T23:49:03.020Z,17.60
2018-06-08T23:51:31.029Z,17.60
2018-06-08T23:53:59.012Z,16.90
2018-06-08T23:56:26.992Z,16.37
2018-06-08T23:58:54.947Z,16.60
